Time;durP1;ratioP1;P1;durP2;ratioP2;P2;SDS_P1;SDS_P2;PMS_P1;PMS_P2;Temp;Humidity;BMP_temperature;BMP_pressure;BME280_temperature;BME280_humidity;BME280_pressure;Samples;Min_cycle;Max_cycle;Signal;HPM_P1;HPM_P2
2023/09/23 00:01:21;;;;;;;5.20;2.70;;;11.70;99.90;;;;;;5082078;28;20025;-74
2023/09/23 00:03:47;;;;;;;4.57;2.30;;;11.70;99.90;;;;;;5067732;28;20024;-74
2023/09/23 00:06:13;;;;;;;6.23;2.50;;;11.80;99.90;;;;;;5066561;28;20097;-74
2023/09/23 00:08:40;;;;;;;4.80;2.50;;;11.80;99.90;;;;;;5065880;28;20021;-75
2023/09/23 00:11:11;;;;;;;4.37;2.37;;;11.70;99.90;;;;;;5065363;28;20040;-74
2023/09/23 00:13:38;;;;;;;4.67;2.20;;;11.70;99.90;;;;;;5065941;28;20021;-74
2023/09/23 00:16:08;;;;;;;7.73;2.70;;;11.70;99.90;;;;;;5067265;28;20028;-75
2023/09/23 00:18:34;;;;;;;4.60;2.53;;;11.70;99.90;;;;;;5067267;28;20017;-74
2023/09/23 00:21:00;;;;;;;6.60;2.93;;;11.70;99.90;;;;;;5066321;28;20048;-74
2023/09/23 00:23:28;;;;;;;5.43;2.63;;;11.70;99.90;;;;;;5066093;28;20017;-74
2023/09/23 00:25:54;;;;;;;3.73;2.57;;;11.80;99.90;;;;;;5062808;28;20044;-74
2023/09/23 00:28:20;;;;;;;3.87;2.43;;;11.70;99.90;;;;;;5065560;28;20060;-75
2023/09/23 00:30:50;;;;;;;3.47;2.53;;;11.70;99.90;;;;;;5066607;28;20056;-74
2023/09/23 00:33:17;;;;;;;5.00;2.67;;;11.80;99.90;;;;;;5065807;28;20032;-74
2023/09/23 00:35:44;;;;;;;3.23;2.37;;;11.80;99.90;;;;;;5064194;28;20029;-74
2023/09/23 00:38:12;;;;;;;4.13;2.20;;;11.70;99.90;;;;;;5067057;28;20033;-74
2023/09/23 00:40:38;;;;;;;8.50;2.77;;;11.60;99.90;;;;;;5063864;28;20029;-74
2023/09/23 00:43:08;;;;;;;5.30;2.80;;;11.60;99.90;;;;;;5063621;28;20037;-74
2023/09/23 00:45:34;;;;;;;5.63;2.80;;;11.60;99.90;;;;;;5063628;28;20041;-74
2023/09/23 00:48:00;;;;;;;8.00;2.73;;;11.50;99.90;;;;;;5065849;28;20044;-74
2023/09/23 00:50:29;;;;;;;4.53;2.57;;;11.50;99.90;;;;;;5066336;28;20021;-74
2023/09/23 00:52:55;;;;;;;4.60;2.77;;;11.60;99.90;;;;;;5067417;28;20029;-74
2023/09/23 00:55:24;;;;;;;5.47;2.77;;;11.60;99.90;;;;;;5067687;28;20024;-74
2023/09/23 00:57:53;;;;;;;5.17;3.03;;;11.60;99.90;;;;;;5066686;28;20205;-74
2023/09/23 01:00:25;;;;;;;5.63;2.90;;;11.60;99.90;;;;;;5067321;28;20029;-74
2023/09/23 01:02:55;;;;;;;;;;;11.70;99.90;;;;;;5066505;28;20025;-74
2023/09/23 01:05:27;;;;;;;3.40;2.47;;;11.70;99.90;;;;;;5066937;28;19943;-74
2023/09/23 01:08:00;;;;;;;6.18;2.63;;;11.70;99.90;;;;;;5066485;28;20040;-74
2023/09/23 01:10:26;;;;;;;5.97;2.60;;;11.70;99.90;;;;;;5063887;28;20097;-74
2023/09/23 01:12:53;;;;;;;6.27;2.70;;;11.70;99.90;;;;;;5065932;28;20014;-74
2023/09/23 01:15:20;;;;;;;6.70;3.20;;;11.70;99.90;;;;;;5063231;28;20039;-74
2023/09/23 01:17:49;;;;;;;4.80;3.10;;;11.80;99.90;;;;;;5063903;28;20035;-74
2023/09/23 01:20:16;;;;;;;3.80;2.67;;;11.70;99.90;;;;;;5065805;28;20086;-74
2023/09/23 01:22:46;;;;;;;4.83;2.70;;;11.80;99.90;;;;;;5064571;28;20025;-74
2023/09/23 01:25:11;;;;;;;5.60;2.70;;;11.80;99.90;;;;;;5062034;28;20032;-74
2023/09/23 01:27:39;;;;;;;3.00;2.17;;;11.70;99.90;;;;;;5064853;28;20233;-74
2023/09/23 01:30:05;;;;;;;6.60;2.77;;;11.70;99.90;;;;;;5065967;28;20036;-74
2023/09/23 01:32:52;;;;;;;7.10;2.63;;;11.70;99.90;;;;;;5065048;28;20009;-75
2023/09/23 01:35:20;;;;;;;5.57;2.47;;;11.60;99.90;;;;;;5065631;28;20017;-74
2023/09/23 01:37:48;;;;;;;6.67;2.43;;;11.60;99.90;;;;;;5065464;28;20055;-73
2023/09/23 01:40:17;;;;;;;2.93;2.50;;;11.60;99.90;;;;;;5066884;28;20043;-74
2023/09/23 01:42:44;;;;;;;4.30;2.67;;;11.50;99.90;;;;;;5064846;28;20037;-74
2023/09/23 01:45:13;;;;;;;5.60;2.77;;;11.50;99.90;;;;;;5066470;28;20056;-74
2023/09/23 01:47:42;;;;;;;5.30;2.90;;;11.50;99.90;;;;;;5064042;28;20047;-75
2023/09/23 01:50:14;;;;;;;5.93;2.73;;;11.50;99.90;;;;;;5065272;28;20020;-74
2023/09/23 01:52:43;;;;;;;;;;;11.40;99.90;;;;;;5067437;28;20033;-75
2023/09/23 01:55:11;;;;;;;10.10;2.27;;;11.40;99.90;;;;;;5068004;28;19909;-74
2023/09/23 01:57:38;;;;;;;4.90;2.63;;;11.40;99.90;;;;;;5069136;28;20022;-74
2023/09/23 02:00:07;;;;;;;4.00;2.37;;;11.30;99.90;;;;;;5065385;28;20017;-74
2023/09/23 02:02:33;;;;;;;6.30;2.80;;;11.30;99.90;;;;;;5069376;28;20055;-74
2023/09/23 02:05:01;;;;;;;5.63;2.67;;;11.30;99.90;;;;;;5067032;28;20028;-74
2023/09/23 02:07:29;;;;;;;5.23;3.00;;;11.30;99.90;;;;;;5068063;28;20049;-75
2023/09/23 02:09:55;;;;;;;9.00;3.20;;;11.30;99.90;;;;;;5067085;28;20104;-74
2023/09/23 02:12:21;;;;;;;5.23;2.33;;;11.30;99.90;;;;;;5066034;28;20037;-75
2023/09/23 02:14:46;;;;;;;5.30;2.37;;;11.30;99.90;;;;;;5066117;28;20053;-74
2023/09/23 02:17:12;;;;;;;8.73;2.53;;;11.30;99.90;;;;;;5066401;28;20009;-74
2023/09/23 02:19:38;;;;;;;4.37;2.20;;;11.20;99.90;;;;;;5064171;28;20033;-74
2023/09/23 02:22:08;;;;;;;4.30;2.67;;;11.20;99.90;;;;;;5065440;28;20030;-74
2023/09/23 02:24:36;;;;;;;3.50;2.43;;;11.20;99.90;;;;;;5065610;28;20020;-75
2023/09/23 02:27:06;;;;;;;7.27;2.13;;;11.20;99.90;;;;;;5067832;28;20014;-74
2023/09/23 02:29:32;;;;;;;4.17;2.40;;;11.20;99.90;;;;;;5066873;28;20013;-74
2023/09/23 02:31:59;;;;;;;7.13;2.40;;;11.20;99.90;;;;;;5067647;28;20040;-74
2023/09/23 02:34:31;;;;;;;4.90;2.43;;;11.20;99.90;;;;;;5064484;28;20040;-74
2023/09/23 02:36:56;;;;;;;6.47;2.30;;;11.10;99.90;;;;;;5068699;28;20022;-75
2023/09/23 02:39:22;;;;;;;8.27;2.50;;;11.10;99.90;;;;;;5068506;28;20097;-75
2023/09/23 02:41:51;;;;;;;4.53;2.30;;;11.10;99.90;;;;;;5065764;28;20032;-74
2023/09/23 02:44:19;;;;;;;5.03;2.60;;;11.10;99.90;;;;;;5067774;28;20096;-74
2023/09/23 02:46:53;;;;;;;4.30;2.60;;;11.10;99.90;;;;;;5064674;28;20018;-74
2023/09/23 02:49:19;;;;;;;6.63;2.47;;;11.10;99.90;;;;;;5063027;28;20022;-74
2023/09/23 02:51:45;;;;;;;4.47;2.27;;;11.10;99.90;;;;;;5065796;28;20110;-74
2023/09/23 02:54:17;;;;;;;6.97;2.50;;;11.10;99.90;;;;;;5066278;28;20040;-74
2023/09/23 02:56:46;;;;;;;5.82;2.30;;;11.10;99.90;;;;;;5069451;28;20062;-74
2023/09/23 02:59:26;;;;;;;5.27;2.57;;;11.10;99.90;;;;;;5069995;28;20021;-74
2023/09/23 03:01:53;;;;;;;6.97;2.33;;;11.00;99.90;;;;;;5069845;28;20032;-74
2023/09/23 03:04:24;;;;;;;5.73;2.80;;;11.00;99.90;;;;;;5069439;28;20068;-74
2023/09/23 03:06:56;;;;;;;6.43;2.97;;;11.00;99.90;;;;;;5068010;28;20081;-74
2023/09/23 03:09:24;;;;;;;7.90;2.63;;;10.90;99.90;;;;;;5071993;28;20095;-74
2023/09/23 03:11:56;;;;;;;4.83;2.13;;;10.90;99.90;;;;;;5070480;28;20036;-74
2023/09/23 03:14:56;;;;;;;6.13;2.45;;;10.90;99.90;;;;;;5072490;28;20021;-74
2023/09/23 03:17:21;;;;;;;6.00;2.60;;;10.90;99.90;;;;;;5069456;28;20084;-74
2023/09/23 03:19:52;;;;;;;4.60;2.40;;;10.90;99.90;;;;;;5073726;28;20021;-74
2023/09/23 03:22:21;;;;;;;4.43;2.00;;;10.80;99.90;;;;;;5072356;28;20088;-75
2023/09/23 03:24:50;;;;;;;5.83;2.63;;;10.80;99.90;;;;;;5073862;28;20021;-74
2023/09/23 03:27:18;;;;;;;5.47;2.50;;;10.80;99.90;;;;;;5071714;28;20031;-75
2023/09/23 03:29:44;;;;;;;6.40;2.40;;;10.70;99.90;;;;;;5069333;28;20063;-74
2023/09/23 03:32:12;;;;;;;7.93;2.60;;;10.70;99.90;;;;;;5072012;28;20017;-74
2023/09/23 03:34:39;;;;;;;6.87;2.63;;;10.70;99.90;;;;;;5071439;28;20053;-75
2023/09/23 03:37:07;;;;;;;11.17;3.10;;;10.70;99.90;;;;;;5070322;28;20052;-74
2023/09/23 03:39:33;;;;;;;6.90;2.50;;;10.60;99.90;;;;;;5069693;28;20057;-75
2023/09/23 03:41:58;;;;;;;6.53;2.50;;;10.60;99.90;;;;;;5071464;28;20018;-75
2023/09/23 03:44:26;;;;;;;5.83;2.27;;;10.60;99.90;;;;;;5068926;28;20029;-74
2023/09/23 03:46:52;;;;;;;8.27;2.27;;;10.60;99.90;;;;;;5069527;28;20053;-74
2023/09/23 03:49:21;;;;;;;4.37;2.20;;;10.50;99.90;;;;;;5069710;28;20318;-73
2023/09/23 03:51:52;;;;;;;4.93;2.33;;;10.50;99.90;;;;;;5071223;28;20042;-74
2023/09/23 03:54:20;;;;;;;5.60;2.57;;;10.50;99.90;;;;;;5071087;28;20017;-74
2023/09/23 03:56:45;;;;;;;6.07;2.73;;;10.60;99.90;;;;;;5067698;28;20041;-73
2023/09/23 03:59:11;;;;;;;3.67;2.00;;;10.60;99.90;;;;;;5069378;28;20029;-73
2023/09/23 04:01:38;;;;;;;8.60;2.30;;;10.50;99.90;;;;;;5066388;28;20021;-74
2023/09/23 04:04:06;;;;;;;5.60;2.50;;;10.40;99.90;;;;;;5071230;28;20044;-74
2023/09/23 04:06:34;;;;;;;7.70;2.17;;;10.40;99.90;;;;;;5068239;28;20010;-74
2023/09/23 04:09:06;;;;;;;4.40;2.17;;;10.40;99.90;;;;;;5069396;28;20074;-74
2023/09/23 04:11:32;;;;;;;4.07;2.00;;;10.40;99.90;;;;;;5068477;28;20100;-74
2023/09/23 04:14:00;;;;;;;5.43;2.30;;;10.40;99.90;;;;;;5066954;28;20025;-74
2023/09/23 04:16:30;;;;;;;9.97;2.17;;;10.40;99.90;;;;;;5068080;28;20057;-74
2023/09/23 04:18:58;;;;;;;5.03;2.67;;;10.40;99.90;;;;;;5070601;28;20089;-74
2023/09/23 04:21:27;;;;;;;8.87;2.83;;;10.40;99.90;;;;;;5086688;28;20056;-74
2023/09/23 04:23:52;;;;;;;7.67;2.63;;;10.30;99.90;;;;;;5068966;28;20104;-74
2023/09/23 04:26:21;;;;;;;4.80;2.43;;;10.40;99.90;;;;;;5067591;28;20013;-74
2023/09/23 04:28:48;;;;;;;4.40;2.13;;;10.30;99.90;;;;;;5069185;28;20086;-74
2023/09/23 04:31:14;;;;;;;5.07;2.10;;;10.30;99.90;;;;;;5065772;28;20037;-74
2023/09/23 04:33:41;;;;;;;4.73;2.20;;;10.30;99.90;;;;;;5069060;28;20033;-74
2023/09/23 04:36:10;;;;;;;3.60;1.87;;;10.30;99.90;;;;;;5069313;28;20012;-73
2023/09/23 04:38:36;;;;;;;6.73;1.97;;;10.20;99.90;;;;;;5068314;28;20009;-74
2023/09/23 04:41:05;;;;;;;5.37;1.87;;;10.30;99.90;;;;;;5069300;28;20086;-74
2023/09/23 04:43:31;;;;;;;9.43;2.13;;;10.30;99.90;;;;;;5070622;28;20032;-74
2023/09/23 04:46:02;;;;;;;6.23;2.20;;;10.30;99.90;;;;;;5071028;28;20021;-74
2023/09/23 04:48:30;;;;;;;10.10;2.50;;;10.20;99.90;;;;;;5068761;28;20068;-74
2023/09/23 04:50:56;;;;;;;5.03;2.40;;;10.20;99.90;;;;;;5068212;28;20021;-74
2023/09/23 04:53:22;;;;;;;5.27;2.30;;;10.10;99.90;;;;;;5068440;28;20024;-74
2023/09/23 04:55:50;;;;;;;6.03;2.00;;;10.10;99.90;;;;;;5067772;28;20084;-74
2023/09/23 04:58:18;;;;;;;4.70;1.83;;;10.20;99.90;;;;;;5068834;28;20096;-74
2023/09/23 05:00:44;;;;;;;10.73;2.40;;;10.10;99.90;;;;;;5065794;28;20064;-74
2023/09/23 05:03:09;;;;;;;5.40;2.23;;;10.00;99.90;;;;;;5069104;28;20021;-75
2023/09/23 05:05:37;;;;;;;5.43;2.10;;;10.00;99.90;;;;;;5068344;28;20044;-74
2023/09/23 05:08:05;;;;;;;7.93;2.40;;;10.00;99.90;;;;;;5069645;28;20013;-74
2023/09/23 05:10:30;;;;;;;4.03;2.10;;;10.00;99.90;;;;;;5068314;28;20041;-74
2023/09/23 05:12:58;;;;;;;5.30;2.27;;;10.00;99.90;;;;;;5069486;28;20028;-74
2023/09/23 05:15:26;;;;;;;5.57;2.37;;;10.00;99.90;;;;;;5068379;28;20029;-74
2023/09/23 05:17:54;;;;;;;5.43;2.23;;;10.00;99.90;;;;;;5068739;28;20101;-74
2023/09/23 05:20:21;;;;;;;5.73;2.47;;;10.10;99.90;;;;;;5066689;28;20023;-74
2023/09/23 05:22:49;;;;;;;4.90;2.33;;;10.00;99.90;;;;;;5068489;28;20019;-73
2023/09/23 05:25:18;;;;;;;13.97;2.60;;;10.00;99.90;;;;;;5065618;28;20048;-74
2023/09/23 05:27:43;;;;;;;8.00;2.23;;;10.00;99.90;;;;;;5070486;28;20038;-74
2023/09/23 05:30:12;;;;;;;7.07;2.43;;;10.10;99.90;;;;;;5067081;28;20033;-74
2023/09/23 05:32:38;;;;;;;8.03;2.40;;;10.10;99.90;;;;;;5078465;28;20093;-74
2023/09/23 05:35:10;;;;;;;10.00;1.87;;;10.10;99.90;;;;;;5066871;28;20013;-74
2023/09/23 05:37:40;;;;;;;4.90;1.93;;;10.10;99.90;;;;;;5067969;28;20009;-74
2023/09/23 05:40:10;;;;;;;8.33;3.40;;;10.20;99.90;;;;;;5067419;28;20013;-74
2023/09/23 05:42:38;;;;;;;9.33;2.30;;;10.20;99.90;;;;;;5067677;28;20025;-74
2023/09/23 05:45:08;;;;;;;7.77;2.83;;;10.20;99.90;;;;;;5066575;28;20021;-74
2023/09/23 05:47:34;;;;;;;5.07;2.67;;;10.20;99.90;;;;;;5067985;28;20055;-74
2023/09/23 05:50:02;;;;;;;5.27;2.97;;;10.20;99.90;;;;;;5070279;28;20020;-75
2023/09/23 05:52:30;;;;;;;9.40;1.80;;;10.20;99.90;;;;;;5067014;28;20013;-74
2023/09/23 05:54:56;;;;;;;6.60;2.13;;;10.20;99.90;;;;;;5070276;28;20025;-75
2023/09/23 05:57:22;;;;;;;5.40;2.63;;;10.10;99.90;;;;;;5068418;28;20025;-73
2023/09/23 05:59:47;;;;;;;4.40;2.07;;;10.20;99.90;;;;;;5068978;28;20025;-74
2023/09/23 06:02:13;;;;;;;5.57;2.13;;;10.20;99.90;;;;;;5071988;28;20028;-74
2023/09/23 06:04:38;;;;;;;8.20;3.20;;;10.20;99.90;;;;;;5067536;28;20021;-74
2023/09/23 06:07:06;;;;;;;6.87;3.10;;;10.20;99.90;;;;;;5067805;28;20206;-74
2023/09/23 06:09:34;;;;;;;10.53;3.23;;;10.20;99.90;;;;;;5067810;28;20024;-74
2023/09/23 06:12:02;;;;;;;8.30;3.60;;;10.20;99.90;;;;;;5067420;28;20045;-74
2023/09/23 06:14:28;;;;;;;8.87;3.83;;;10.30;99.90;;;;;;5066464;28;20028;-74
2023/09/23 06:16:53;;;;;;;7.13;2.77;;;10.30;99.90;;;;;;5065549;28;20025;-73
2023/09/23 06:19:19;;;;;;;14.50;3.30;;;10.30;99.90;;;;;;5066125;28;20028;-74
2023/09/23 06:21:45;;;;;;;9.03;2.40;;;10.30;99.90;;;;;;5070052;28;20043;-74
2023/09/23 06:24:11;;;;;;;6.87;3.40;;;10.30;99.90;;;;;;5065175;28;20052;-74
2023/09/23 06:26:38;;;;;;;8.87;3.50;;;10.40;99.90;;;;;;5066643;28;20257;-74
2023/09/23 06:29:06;;;;;;;10.43;4.10;;;10.40;99.90;;;;;;5068394;28;20014;-74
2023/09/23 06:31:31;;;;;;;10.70;3.33;;;10.40;99.90;;;;;;5068073;28;20088;-74
2023/09/23 06:33:59;;;;;;;10.40;3.30;;;10.30;99.90;;;;;;5091099;28;20025;-74
2023/09/23 06:36:25;;;;;;;6.10;3.50;;;10.40;99.90;;;;;;5074217;28;20021;-74
2023/09/23 06:38:53;;;;;;;9.97;3.50;;;10.40;99.90;;;;;;5076719;28;20034;-74
2023/09/23 06:41:19;;;;;;;14.07;3.90;;;10.50;99.90;;;;;;5072913;28;20234;-74
2023/09/23 06:43:47;;;;;;;6.73;3.20;;;10.50;99.90;;;;;;5072961;28;20021;-73
2023/09/23 06:46:12;;;;;;;9.90;3.43;;;10.60;99.90;;;;;;5087191;28;20040;-74
2023/09/23 06:48:42;;;;;;;10.70;3.80;;;10.60;99.90;;;;;;5073209;28;20088;-74
2023/09/23 06:51:08;;;;;;;11.67;2.53;;;10.70;99.90;;;;;;5074009;28;20052;-74
2023/09/23 06:53:34;;;;;;;8.00;3.07;;;10.80;99.90;;;;;;5073488;28;20040;-74
2023/09/23 06:56:00;;;;;;;7.30;2.50;;;10.90;99.90;;;;;;5073095;28;20029;-74
2023/09/23 06:58:28;;;;;;;3.83;2.07;;;11.00;99.90;;;;;;5073206;28;20050;-74
2023/09/23 07:00:58;;;;;;;8.00;2.83;;;11.00;99.90;;;;;;5072530;28;20020;-74
2023/09/23 07:03:24;;;;;;;7.10;2.43;;;11.10;99.90;;;;;;5072620;28;20020;-74
2023/09/23 07:05:49;;;;;;;8.80;2.53;;;11.20;99.90;;;;;;5069578;28;20029;-74
2023/09/23 07:08:15;;;;;;;5.33;2.20;;;11.20;99.90;;;;;;5073441;28;20009;-75
2023/09/23 07:10:41;;;;;;;9.23;2.63;;;11.30;99.90;;;;;;5072108;28;20035;-74
2023/09/23 07:13:09;;;;;;;9.83;2.30;;;11.30;99.90;;;;;;5072211;28;20028;-75
2023/09/23 07:15:39;;;;;;;4.70;2.60;;;11.30;99.90;;;;;;5069982;28;20025;-74
2023/09/23 07:18:07;;;;;;;4.87;1.90;;;11.40;99.90;;;;;;5072616;28;20095;-78
2023/09/23 07:20:34;;;;;;;8.20;2.13;;;11.40;99.90;;;;;;5083843;28;20028;-75
2023/09/23 07:23:00;;;;;;;12.13;2.50;;;11.40;99.90;;;;;;5082145;28;20048;-74
2023/09/23 07:25:27;;;;;;;7.30;1.83;;;11.40;99.90;;;;;;5068760;28;20029;-74
2023/09/23 07:27:53;;;;;;;4.27;1.60;;;11.50;99.90;;;;;;5069252;28;20020;-76
2023/09/23 07:30:19;;;;;;;7.00;1.87;;;11.60;99.90;;;;;;5069771;28;20042;-76
2023/09/23 07:32:45;;;;;;;12.43;1.57;;;11.60;99.90;;;;;;5070379;28;20036;-74
2023/09/23 07:35:10;;;;;;;3.63;1.57;;;11.70;99.90;;;;;;5069525;28;20025;-75
2023/09/23 07:37:36;;;;;;;2.97;1.50;;;11.80;99.90;;;;;;5070834;28;20021;-74
2023/09/23 07:40:03;;;;;;;3.17;1.53;;;11.70;99.90;;;;;;5068880;28;20045;-75
2023/09/23 07:42:31;;;;;;;11.57;1.43;;;11.80;99.90;;;;;;5070023;28;20032;-75
2023/09/23 07:44:58;;;;;;;7.53;1.73;;;11.90;99.90;;;;;;5067884;28;20072;-75
2023/09/23 07:47:24;;;;;;;7.10;1.50;;;11.90;99.90;;;;;;5076127;28;20019;-75
2023/09/23 07:49:50;;;;;;;7.20;1.50;;;11.90;99.90;;;;;;5067641;28;20092;-74
2023/09/23 07:52:16;;;;;;;5.67;1.23;;;11.90;99.90;;;;;;5064606;28;20101;-74
2023/09/23 07:54:41;;;;;;;3.77;1.30;;;12.00;99.90;;;;;;5064748;28;20041;-74
2023/09/23 07:57:07;;;;;;;10.93;1.73;;;12.00;99.90;;;;;;5067169;28;20060;-74
2023/09/23 07:59:33;;;;;;;6.97;1.40;;;12.10;99.90;;;;;;5065342;28;20021;-74
2023/09/23 08:01:58;;;;;;;5.30;1.50;;;12.10;99.90;;;;;;5066938;28;20056;-74
2023/09/23 08:04:24;;;;;;;9.73;1.67;;;12.20;99.90;;;;;;5063254;28;20037;-74
2023/09/23 08:06:49;;;;;;;4.97;1.37;;;12.30;99.90;;;;;;5066702;28;20089;-74
2023/09/23 08:09:17;;;;;;;3.57;1.30;;;12.40;99.90;;;;;;5062747;28;20034;-75
2023/09/23 08:11:45;;;;;;;5.60;1.20;;;12.50;99.90;;;;;;5066186;28;20104;-74
2023/09/23 08:14:10;;;;;;;7.73;1.13;;;12.50;99.90;;;;;;5065262;28;20032;-75
2023/09/23 08:16:36;;;;;;;9.73;2.30;;;12.60;99.90;;;;;;5062203;28;20025;-74
2023/09/23 08:19:02;;;;;;;3.00;1.20;;;12.70;99.90;;;;;;5063550;28;20021;-75
2023/09/23 08:21:30;;;;;;;3.53;1.00;;;12.80;99.90;;;;;;5062667;28;20028;-75
2023/09/23 08:23:57;;;;;;;6.30;1.57;;;12.80;99.90;;;;;;5063170;28;20033;-74
2023/09/23 08:26:22;;;;;;;4.63;1.20;;;12.90;99.90;;;;;;5067775;28;20025;-75
2023/09/23 08:28:48;;;;;;;4.70;0.97;;;12.90;99.90;;;;;;5063192;28;20056;-74
2023/09/23 08:31:14;;;;;;;2.23;1.03;;;13.00;99.90;;;;;;5062637;28;20087;-76
2023/09/23 08:33:43;;;;;;;4.03;1.20;;;13.00;99.90;;;;;;5065115;28;20009;-74
2023/09/23 08:36:09;;;;;;;6.40;1.30;;;13.20;99.90;;;;;;5064311;28;20029;-74
2023/09/23 08:38:34;;;;;;;5.63;1.20;;;13.20;99.90;;;;;;5064168;28;20218;-74
2023/09/23 08:41:04;;;;;;;7.03;1.23;;;13.20;99.90;;;;;;5062152;28;20036;-74
2023/09/23 08:43:36;;;;;;;8.18;1.65;;;13.30;99.90;;;;;;5063028;28;20017;-74
2023/09/23 08:46:05;;;;;;;6.15;1.27;;;13.40;99.90;;;;;;5070179;28;20033;-77
2023/09/23 08:48:31;;;;;;;2.90;1.27;;;13.50;99.90;;;;;;5078858;28;20041;-74
2023/09/23 08:51:02;;;;;;;2.72;0.70;;;13.60;99.90;;;;;;5060192;28;20099;-73
2023/09/23 08:53:31;;;;;;;4.63;1.38;;;13.70;99.90;;;;;;5060342;28;20077;-74
2023/09/23 08:55:56;;;;;;;5.38;0.90;;;13.90;99.90;;;;;;5059497;28;20033;-73
2023/09/23 08:58:23;;;;;;;4.25;1.00;;;14.10;99.90;;;;;;5062862;28;20045;-74
2023/09/23 09:00:53;;;;;;;3.25;1.25;;;14.10;99.90;;;;;;5062822;28;20088;-73
2023/09/23 09:03:21;;;;;;;5.40;1.23;;;14.10;99.90;;;;;;5063789;28;20017;-73
2023/09/23 09:05:50;;;;;;;4.25;1.10;;;14.00;99.90;;;;;;5060571;28;20032;-73
2023/09/23 09:08:19;;;;;;;7.13;1.35;;;14.00;99.90;;;;;;5061966;28;20032;-73
2023/09/23 09:10:49;;;;;;;4.55;1.05;;;14.00;99.90;;;;;;5062374;28;20036;-73
2023/09/23 09:13:17;;;;;;;4.60;1.02;;;14.00;99.90;;;;;;5060641;28;20037;-73
2023/09/23 09:15:43;;;;;;;3.38;1.30;;;14.10;99.90;;;;;;5061405;28;20033;-74
2023/09/23 09:18:13;;;;;;;9.27;1.23;;;14.10;99.90;;;;;;5064046;28;20009;-73
2023/09/23 09:20:40;;;;;;;10.20;1.58;;;14.10;99.90;;;;;;5059932;28;20033;-73
2023/09/23 09:23:06;;;;;;;2.13;1.00;;;14.10;99.90;;;;;;5062874;28;20044;-73
2023/09/23 09:25:34;;;;;;;7.65;0.90;;;14.10;99.90;;;;;;5064352;28;20028;-73
2023/09/23 09:28:00;;;;;;;1.92;0.77;;;14.10;99.90;;;;;;5062804;28;20464;-73
2023/09/23 09:30:28;;;;;;;5.88;1.13;;;14.10;99.90;;;;;;5062725;28;20056;-73
2023/09/23 09:33:00;;;;;;;4.40;0.90;;;13.90;99.90;;;;;;5060994;28;20017;-73
2023/09/23 09:35:27;;;;;;;2.28;1.10;;;14.00;99.90;;;;;;5061450;28;20044;-73
2023/09/23 09:37:55;;;;;;;5.22;1.23;;;13.90;99.90;;;;;;5062958;28;20029;-73
2023/09/23 09:40:24;;;;;;;6.25;1.55;;;13.90;99.90;;;;;;5062689;28;20068;-74
2023/09/23 09:42:54;;;;;;;3.75;1.05;;;13.80;99.90;;;;;;5062529;28;20021;-74
2023/09/23 09:45:21;;;;;;;5.10;1.20;;;13.90;99.90;;;;;;5060019;28;20029;-73
2023/09/23 09:47:50;;;;;;;2.85;0.88;;;14.00;99.90;;;;;;5066127;28;20021;-73
2023/09/23 09:50:19;;;;;;;3.35;1.10;;;14.00;99.90;;;;;;5062752;28;20041;-73
2023/09/23 09:52:47;;;;;;;2.67;0.88;;;14.10;99.90;;;;;;5060062;28;20102;-73
2023/09/23 09:55:17;;;;;;;8.45;1.50;;;14.20;99.90;;;;;;5058901;28;20026;-73
2023/09/23 09:57:43;;;;;;;5.88;1.20;;;14.30;99.90;;;;;;5073961;28;20017;-73
2023/09/23 10:00:23;;;;;;;9.13;1.42;;;14.40;99.90;;;;;;5063325;28;20020;-73
2023/09/23 10:02:50;;;;;;;8.00;0.98;;;14.40;99.90;;;;;;5076457;28;20029;-73
2023/09/23 10:05:18;;;;;;;1.98;0.77;;;14.50;99.90;;;;;;5060012;28;20025;-73
2023/09/23 10:07:56;;;;;;;5.63;1.00;;;14.60;99.90;;;;;;5060891;28;20052;-73
2023/09/23 10:10:35;;;;;;;6.60;1.23;;;14.70;99.90;;;;;;5060027;28;20116;-73
2023/09/23 10:13:11;;;;;;;2.97;0.63;;;14.70;99.90;;;;;;5061063;28;20053;-73
2023/09/23 10:15:40;;;;;;;3.38;0.57;;;14.70;99.90;;;;;;5062531;28;20024;-74
2023/09/23 10:18:37;;;;;;;3.58;0.90;;;14.70;99.90;;;;;;5061844;28;20021;-73
2023/09/23 10:21:06;;;;;;;4.25;0.75;;;14.80;99.90;;;;;;5061684;28;20056;-73
2023/09/23 10:23:39;;;;;;;2.08;0.70;;;14.80;99.90;;;;;;5060307;28;20021;-75
2023/09/23 10:26:19;;;;;;;3.25;0.85;;;15.00;99.90;;;;;;5059064;28;20040;-75
2023/09/23 10:29:03;;;;;;;4.30;0.95;;;15.10;99.90;;;;;;5060040;28;20037;-74
2023/09/23 10:31:30;;;;;;;3.58;0.80;;;15.00;99.90;;;;;;5061354;28;20040;-74
2023/09/23 10:34:05;;;;;;;2.67;0.70;;;14.90;99.90;;;;;;5058445;28;20032;-75
2023/09/23 10:36:30;;;;;;;1.90;0.63;;;14.90;99.90;;;;;;5060576;28;20029;-74
2023/09/23 10:38:57;;;;;;;9.27;1.02;;;14.80;99.90;;;;;;5059294;28;20040;-74
2023/09/23 10:41:32;;;;;;;4.93;0.70;;;14.90;99.90;;;;;;5061773;28;20050;-75
2023/09/23 10:43:57;;;;;;;1.58;0.68;;;14.90;99.90;;;;;;5061560;28;20053;-76
2023/09/23 10:46:23;;;;;;;2.72;0.70;;;15.00;99.90;;;;;;5062697;28;20030;-80
2023/09/23 10:48:54;;;;;;;3.92;1.15;;;15.00;99.90;;;;;;5064683;28;20017;-75
2023/09/23 10:51:20;;;;;;;5.55;0.70;;;14.90;99.90;;;;;;5062526;28;21196;-75
2023/09/23 10:53:49;;;;;;;7.38;0.90;;;14.90;99.90;;;;;;5063997;28;20049;-75
2023/09/23 10:56:15;;;;;;;7.18;1.00;;;14.90;99.90;;;;;;5061803;28;20026;-75
2023/09/23 10:58:47;;;;;;;5.03;1.02;;;15.00;99.90;;;;;;5063505;28;20037;-74
2023/09/23 11:01:16;;;;;;;3.22;0.82;;;15.00;99.90;;;;;;5060247;28;20022;-76
2023/09/23 11:03:42;;;;;;;6.18;1.10;;;15.10;99.90;;;;;;5063719;28;20021;-75
2023/09/23 11:06:08;;;;;;;5.65;0.82;;;15.10;99.90;;;;;;5063243;28;20102;-74
2023/09/23 11:08:39;;;;;;;1.08;0.57;;;15.20;99.90;;;;;;5085471;22;20028;-75
2023/09/23 11:11:09;;;;;;;2.83;0.65;;;15.20;99.90;;;;;;5084781;28;20037;-74
2023/09/23 11:13:37;;;;;;;3.88;0.70;;;15.30;99.90;;;;;;5085707;28;20027;-74
2023/09/23 11:16:10;;;;;;;2.65;0.93;;;15.40;99.90;;;;;;5085436;28;20029;-76
2023/09/23 11:18:37;;;;;;;1.27;0.68;;;15.30;99.90;;;;;;5099153;28;20267;-74
2023/09/23 11:21:05;;;;;;;2.17;0.45;;;15.50;99.90;;;;;;5090918;28;20989;-75
2023/09/23 11:23:35;;;;;;;4.32;0.60;;;15.50;99.90;;;;;;5087593;28;20027;-75
2023/09/23 11:26:01;;;;;;;3.35;0.50;;;15.50;99.90;;;;;;5089409;28;20080;-74
2023/09/23 11:28:27;;;;;;;2.70;0.65;;;15.40;99.90;;;;;;5089390;28;20043;-74
2023/09/23 11:30:55;;;;;;;0.65;0.40;;;15.50;99.90;;;;;;5084827;28;20040;-75
2023/09/23 11:33:45;;;;;;;2.10;0.50;;;15.60;99.90;;;;;;5086296;28;20009;-75
2023/09/23 11:36:12;;;;;;;3.20;1.15;;;15.60;99.90;;;;;;5087775;28;20155;-74
2023/09/23 11:38:39;;;;;;;3.88;0.95;;;15.60;99.90;;;;;;5085909;28;20047;-74
2023/09/23 11:41:05;;;;;;;2.13;0.95;;;15.60;99.90;;;;;;5088809;28;20043;-75
2023/09/23 11:43:34;;;;;;;4.40;0.85;;;15.70;99.90;;;;;;5087605;28;20558;-75
2023/09/23 11:45:59;;;;;;;2.13;0.80;;;15.60;99.90;;;;;;5088244;28;20025;-74
2023/09/23 11:48:25;;;;;;;3.42;0.60;;;15.70;99.90;;;;;;5089682;28;20025;-74
2023/09/23 11:50:53;;;;;;;3.28;0.80;;;15.70;99.90;;;;;;5087571;28;20041;-74
2023/09/23 11:53:37;;;;;;;3.10;0.75;;;15.70;99.90;;;;;;5087943;28;20035;-74
2023/09/23 11:56:08;;;;;;;5.25;1.10;;;15.80;99.90;;;;;;5102780;28;20040;-74
2023/09/23 11:58:41;;;;;;;2.75;0.70;;;15.90;99.90;;;;;;5087897;28;20029;-74
2023/09/23 12:01:10;;;;;;;4.68;1.08;;;16.00;99.90;;;;;;5085727;28;20090;-74
2023/09/23 12:03:37;;;;;;;2.70;0.70;;;15.90;99.90;;;;;;5089871;28;20035;-74
2023/09/23 12:06:05;;;;;;;3.60;1.08;;;16.00;99.90;;;;;;5084959;28;20021;-74
2023/09/23 12:08:37;;;;;;;2.17;1.40;;;16.10;99.90;;;;;;5083529;28;20025;-74
2023/09/23 12:11:06;;;;;;;4.50;1.42;;;16.10;99.90;;;;;;5083626;28;20040;-74
2023/09/23 12:13:52;;;;;;;4.22;1.90;;;16.20;99.90;;;;;;5083794;28;20078;-74
2023/09/23 12:16:18;;;;;;;4.30;1.60;;;16.40;99.90;;;;;;5090003;28;20033;-74
2023/09/23 12:18:48;;;;;;;3.63;1.63;;;16.20;99.90;;;;;;5084471;28;20023;-74
2023/09/23 12:21:20;;;;;;;3.13;1.48;;;16.30;99.90;;;;;;5085377;28;20021;-75
2023/09/23 12:23:51;;;;;;;6.65;2.00;;;16.30;99.90;;;;;;5084150;28;20025;-74
2023/09/23 12:26:31;;;;;;;3.47;1.67;;;16.20;99.90;;;;;;5086204;28;20044;-74
2023/09/23 12:29:05;;;;;;;2.70;1.80;;;16.00;99.90;;;;;;5082391;28;20168;-75
2023/09/23 12:31:38;;;;;;;5.07;2.10;;;15.90;99.90;;;;;;5084249;28;20036;-74
2023/09/23 12:34:04;;;;;;;5.93;1.90;;;16.00;99.90;;;;;;5083291;28;20056;-75
2023/09/23 12:36:32;;;;;;;5.63;2.10;;;16.00;99.90;;;;;;5085299;28;21172;-74
2023/09/23 12:39:07;;;;;;;6.18;1.80;;;16.20;99.90;;;;;;5085479;28;20048;-74
2023/09/23 12:41:32;;;;;;;2.60;1.88;;;16.40;99.90;;;;;;5084655;28;20024;-74
2023/09/23 12:44:01;;;;;;;4.43;1.52;;;16.60;99.90;;;;;;5083768;28;20021;-74
2023/09/23 12:46:26;;;;;;;5.40;2.28;;;16.70;99.90;;;;;;5085873;28;20067;-75
2023/09/23 12:48:54;;;;;;;3.60;2.22;;;16.70;99.90;;;;;;5083293;28;20028;-74
2023/09/23 12:51:21;;;;;;;3.92;2.00;;;16.70;99.90;;;;;;5088183;28;20043;-75